Montpelier, VT

7:06 AM EDT on September 05, 2015 (GMT -0400)
Knapp State | | Change Station
CLOSE
Current Station
Airport
Location: Montpelier,
Elevation: 1165 ft
Nearby Weather Stations

Elev 1165 ft 44.20 °N, 72.56 °W | Updated 15 minutes ago

Fog
Fog
53 °F
Feels Like 53 °F
N
4
Wind Variable Wind from South

Today
High -- | Low -- °F
--% Chance of Precip.
Yesterday
High -- | Low -- °F
Precip. -- in
6:17 AM 7:19 PM
Waning Gibbous, 49% visible
Pressure 30.35 in
Visibility 0.2 miles
Clouds
Dew Point 52 °F
Humidity 96%
Rainfall 0.00 in
Snow Depth Not available.
UV Not available.
Pollen 7.90 out of 12
Air Quality Not available.
Flu Activity Not available.
METAR KMPV 051051Z AUTO 17003KT M1/4SM FG VV001 12/11 A3035 RMK AO2 SLP277 T01170111
Pressure 30.35 in
Visibility 0.2 miles
Clouds
Dew Point 52 °F
Humidity 96%
Rainfall 0.00 in
Snow Depth Not available.
UV Not available.
Pollen 7.90 out of 12
Air Quality Not available.
Flu Activity Not available.
METAR KMPV 051051Z AUTO 17003KT M1/4SM FG VV001 12/11 A3035 RMK AO2 SLP277 T01170111

10-Day Weather Forecast

×

Almanac

Astronomy

Sep. 05, 2015 Rise Set
Actual Time
Civil Twilight
Nautical Twilight
Astronomical Twilight
Moon
Length of Visible Light
Length of Day
Tomorrow will be .
, % of the Moon is Illuminated

Today's Extremes

State Highs State Lows

Community

WunderPhotos

Upload Photos

1,852,445 photos uploaded!

WunderBlogs® & News

Nearby

Air Quality

  Air Quality AQ Index Pollutant
Not available.

Snow Depth

Station Depth Elevation

Earthquake Activity

City Distance Mag. Time & Date
Minimum magnitude displayed is 2.5.

Coastal Water Temperatures

Place Temperature

Stations

Nearby Weather Stations

Station Location Temp. Windchill Dew Point Humidity Wind Precip. Elev Updated Type